createdAt,value
2022-11-09T00:01:30.553Z,96895.03
2022-11-09T00:04:03.066Z,96896.53
2022-11-09T00:06:32.405Z,96894.88
2022-11-09T00:09:06.847Z,96884.56
2022-11-09T00:11:36.518Z,96879.16
2022-11-09T00:14:04.976Z,96880.66
2022-11-09T00:16:33.404Z,96876.38
2022-11-09T00:19:03.153Z,96880.97
2022-11-09T00:21:31.581Z,96879.16
2022-11-09T00:23:59.908Z,96884.47
2022-11-09T00:26:28.326Z,96891.50
2022-11-09T00:28:56.826Z,96887.09
2022-11-09T00:31:25.922Z,96882.31
2022-11-09T00:33:55.745Z,96877.19
2022-11-09T00:36:27.674Z,96881.63
2022-11-09T00:38:57.786Z,96872.25
2022-11-09T00:41:27.076Z,96879.31
2022-11-09T00:43:55.757Z,96881.25
2022-11-09T00:46:24.472Z,96882.38
2022-11-09T00:48:53.184Z,96884.69
2022-11-09T00:51:21.557Z,96859.63
2022-11-09T00:53:54.906Z,96865.84
2022-11-09T00:56:23.401Z,96865.22
2022-11-09T00:58:54.916Z,96869.56
2022-11-09T01:01:23.634Z,96866.81
2022-11-09T01:03:52.169Z,96867.38
2022-11-09T01:06:22.210Z,96870.53
2022-11-09T01:08:53.118Z,96868.56
2022-11-09T01:11:22.317Z,96865.28
2022-11-09T01:13:50.716Z,96855.75
2022-11-09T01:16:21.749Z,96839.72
2022-11-09T01:18:50.397Z,96837.53
2022-11-09T01:21:18.727Z,96816.50
2022-11-09T01:23:47.084Z,96808.50
2022-11-09T01:26:17.796Z,96807.91
2022-11-09T01:28:46.446Z,96812.63
2022-11-09T01:31:16.680Z,96812.94
2022-11-09T01:33:45.287Z,96814.94
2022-11-09T01:36:15.668Z,96836.97
2022-11-09T01:38:44.539Z,96842.06
2022-11-09T01:41:14.846Z,96850.47
2022-11-09T01:43:45.375Z,96840.44
2022-11-09T01:46:18.114Z,96835.19
2022-11-09T01:48:49.489Z,96834.88
2022-11-09T01:51:23.927Z,96851.66
2022-11-09T01:53:54.657Z,96849.19
2022-11-09T01:56:23.466Z,96836.38
2022-11-09T01:58:57.354Z,96850.22
2022-11-09T02:01:26.200Z,96847.16
2022-11-09T02:03:57.616Z,96844.59
2022-11-09T02:06:27.643Z,96835.28
2022-11-09T02:09:04.543Z,96831.22
2022-11-09T02:11:33.315Z,96824.50
2022-11-09T02:14:04.533Z,96823.22
2022-11-09T02:16:33.663Z,96844.69
2022-11-09T02:19:02.368Z,96856.41
2022-11-09T02:21:33.394Z,96854.78
2022-11-09T02:24:02.435Z,96852.69
2022-11-09T02:26:34.375Z,96839.72
2022-11-09T02:29:04.792Z,96842.88
2022-11-09T02:31:36.213Z,96848.03
2022-11-09T02:34:08.363Z,96837.34
2022-11-09T02:36:38.553Z,96822.91
2022-11-09T02:39:07.296Z,96819.25
2022-11-09T02:41:36.268Z,96823.00
2022-11-09T02:44:04.571Z,96829.03
2022-11-09T02:46:34.825Z,96824.19
2022-11-09T02:49:03.443Z,96825.41
2022-11-09T02:51:32.142Z,96826.03
2022-11-09T02:54:02.104Z,96837.78
2022-11-09T02:56:30.457Z,96833.38
2022-11-09T02:58:58.671Z,96823.56
2022-11-09T03:01:27.105Z,96821.06
2022-11-09T03:03:55.584Z,96810.63
2022-11-09T03:06:34.841Z,96800.91
2022-11-09T03:09:06.535Z,96813.53
2022-11-09T03:11:35.392Z,96817.66
2022-11-09T03:14:03.850Z,96824.69
2022-11-09T03:16:32.492Z,96830.41
2022-11-09T03:19:01.333Z,96829.59
2022-11-09T03:21:30.652Z,96828.91
2022-11-09T03:23:58.927Z,96834.91
2022-11-09T03:26:28.616Z,96825.34
2022-11-09T03:28:56.825Z,96828.88
2022-11-09T03:31:25.183Z,96837.38
2022-11-09T03:33:53.484Z,96837.38
2022-11-09T03:36:21.754Z,96843.13
2022-11-09T03:38:50.013Z,96846.56
2022-11-09T03:41:18.504Z,96859.00
2022-11-09T03:43:48.294Z,96848.16
2022-11-09T03:46:16.681Z,96846.50
2022-11-09T03:48:45.363Z,96837.13
2022-11-09T03:51:13.653Z,96838.13
2022-11-09T03:53:41.863Z,96836.16
2022-11-09T03:56:10.322Z,96842.91
2022-11-09T03:58:38.653Z,96853.84
2022-11-09T04:01:08.533Z,96851.75
2022-11-09T04:03:36.870Z,96838.66
2022-11-09T04:06:05.287Z,96838.41
2022-11-09T04:08:33.634Z,96841.84
2022-11-09T04:11:02.026Z,96839.91
2022-11-09T04:13:30.483Z,96839.91
2022-11-09T04:15:58.993Z,96840.59
2022-11-09T04:18:28.704Z,96833.41
2022-11-09T04:20:59.505Z,96836.03
2022-11-09T04:23:27.868Z,96833.72
2022-11-09T04:25:56.173Z,96834.38
2022-11-09T04:28:24.563Z,96828.97
2022-11-09T04:30:53.014Z,96819.16
2022-11-09T04:33:22.099Z,96825.06
2022-11-09T04:35:52.062Z,96811.75
2022-11-09T04:38:20.514Z,96811.28
2022-11-09T04:40:48.795Z,96822.59
2022-11-09T04:43:17.587Z,96821.13
2022-11-09T04:45:47.523Z,96814.91
2022-11-09T04:48:15.894Z,96806.38
2022-11-09T04:50:44.421Z,96815.56
2022-11-09T04:53:15.650Z,96816.72
2022-11-09T04:55:44.384Z,96803.59
2022-11-09T04:58:12.722Z,96809.16
2022-11-09T05:00:41.117Z,96822.41
2022-11-09T05:03:09.664Z,96816.72
2022-11-09T05:05:42.842Z,96806.31
2022-11-09T05:08:16.767Z,96814.84
2022-11-09T05:10:44.976Z,96818.88
2022-11-09T05:13:14.234Z,96822.31
2022-11-09T05:15:42.933Z,96827.13
2022-11-09T05:18:12.024Z,96828.97
2022-11-09T05:20:40.465Z,96840.91
2022-11-09T05:23:25.918Z,96847.22
2022-11-09T05:25:55.476Z,96848.59
2022-11-09T05:28:23.762Z,96844.56
2022-11-09T05:30:51.933Z,96841.41
2022-11-09T05:33:20.331Z,96848.06
2022-11-09T05:35:49.229Z,96837.50
2022-11-09T05:38:17.444Z,96835.19
2022-11-09T05:40:46.071Z,96843.91
2022-11-09T05:43:15.701Z,96846.94
2022-11-09T05:45:44.668Z,96830.19
2022-11-09T05:48:13.355Z,96835.78
2022-11-09T05:50:42.869Z,96847.09
2022-11-09T05:53:11.754Z,96844.19
2022-11-09T05:55:40.345Z,96847.31
2022-11-09T05:58:08.553Z,96841.63
2022-11-09T06:00:38.425Z,96849.56
2022-11-09T06:03:07.982Z,96849.50
2022-11-09T06:05:36.733Z,96859.06
2022-11-09T06:08:05.833Z,96863.72
2022-11-09T06:10:34.365Z,96861.44
2022-11-09T06:13:02.862Z,96867.06
2022-11-09T06:15:31.512Z,96875.81
2022-11-09T06:18:01.167Z,96882.78
2022-11-09T06:20:29.884Z,96883.97
2022-11-09T06:23:03.106Z,96883.00
2022-11-09T06:25:33.127Z,96872.19
2022-11-09T06:28:01.635Z,96887.47
2022-11-09T06:30:29.863Z,96868.50
2022-11-09T06:33:02.962Z,96873.56
2022-11-09T06:35:31.495Z,96879.66
2022-11-09T06:38:00.259Z,96880.50
2022-11-09T06:40:28.839Z,96882.94
2022-11-09T06:42:58.605Z,96895.75
2022-11-09T06:45:26.934Z,96894.63
2022-11-09T06:47:58.145Z,96916.75
2022-11-09T06:50:28.886Z,96916.41
2022-11-09T06:52:59.379Z,96930.88
2022-11-09T06:55:27.866Z,96941.66
2022-11-09T06:57:57.158Z,96945.63
2022-11-09T07:00:26.315Z,96954.19
2022-11-09T07:02:55.881Z,96962.53
2022-11-09T07:05:24.103Z,96961.59
2022-11-09T07:07:53.656Z,96967.34
2022-11-09T07:10:21.863Z,96960.69
2022-11-09T07:12:50.203Z,96964.47
2022-11-09T07:15:18.737Z,96954.25
2022-11-09T07:17:46.896Z,96961.09
2022-11-09T07:20:15.405Z,96976.22
2022-11-09T07:22:43.785Z,96969.03
2022-11-09T07:25:13.842Z,96975.19
2022-11-09T07:27:42.030Z,96974.72
2022-11-09T07:30:11.384Z,96986.66
2022-11-09T07:33:07.401Z,96968.63
2022-11-09T07:35:29.406Z,96975.72
2022-11-09T07:38:01.325Z,96975.78
2022-11-09T07:40:31.758Z,96998.88
2022-11-09T07:43:01.205Z,96986.72
2022-11-09T07:45:29.580Z,97004.66
2022-11-09T07:47:58.489Z,96988.38
2022-11-09T07:50:26.927Z,96981.06
2022-11-09T07:52:56.427Z,96982.03
2022-11-09T07:55:25.006Z,96986.81
2022-11-09T07:57:58.022Z,96995.69
2022-11-09T08:00:26.963Z,96993.56
2022-11-09T08:02:55.505Z,97004.63
2022-11-09T08:05:23.745Z,97006.00
2022-11-09T08:07:56.295Z,96990.56
2022-11-09T08:10:24.941Z,96990.00
2022-11-09T08:12:59.280Z,96986.47
2022-11-09T08:15:28.068Z,96969.81
2022-11-09T08:17:56.341Z,96972.28
2022-11-09T08:20:24.491Z,96981.47
2022-11-09T08:22:52.707Z,96982.44
2022-11-09T08:25:21.402Z,96969.31
2022-11-09T08:27:49.754Z,96976.06
2022-11-09T08:30:20.805Z,96980.47
2022-11-09T08:32:50.174Z,96988.25
2022-11-09T08:35:20.410Z,96996.00
2022-11-09T08:37:49.620Z,97003.16
2022-11-09T08:40:19.664Z,97004.56
2022-11-09T08:42:47.803Z,96999.09
2022-11-09T08:45:17.190Z,96989.25
2022-11-09T08:47:47.256Z,96989.72
2022-11-09T08:50:17.036Z,96992.88
2022-11-09T08:52:45.116Z,96992.53
2022-11-09T08:55:13.325Z,96996.19
2022-11-09T08:57:41.434Z,96996.34
2022-11-09T09:00:10.639Z,96992.38
2022-11-09T09:02:38.812Z,96986.97
2022-11-09T09:05:10.167Z,96980.53
2022-11-09T09:07:38.291Z,96984.34
2022-11-09T09:10:07.241Z,96982.50
2022-11-09T09:12:35.711Z,96983.50
2022-11-09T09:15:04.479Z,96983.84
2022-11-09T09:17:35.580Z,96990.22
2022-11-09T09:20:04.371Z,96994.84
2022-11-09T09:22:34.333Z,96988.78
2022-11-09T09:25:02.876Z,97001.97
2022-11-09T09:27:31.259Z,96999.81
2022-11-09T09:29:59.909Z,96990.22
2022-11-09T09:32:28.112Z,96983.78
2022-11-09T09:34:56.264Z,96970.75
2022-11-09T09:37:24.418Z,96978.03
2022-11-09T09:39:54.054Z,96975.88
2022-11-09T09:42:25.284Z,96988.75
2022-11-09T09:44:57.534Z,96989.22
2022-11-09T09:47:31.262Z,96990.56
2022-11-09T09:50:02.919Z,96986.13
2022-11-09T09:52:42.015Z,96988.78
2022-11-09T09:55:19.154Z,96997.03
2022-11-09T09:57:52.182Z,96998.69
2022-11-09T10:00:23.790Z,96987.06
2022-11-09T10:02:52.481Z,96991.13
2022-11-09T10:05:21.494Z,96982.47
2022-11-09T10:07:53.929Z,96979.63
2022-11-09T10:10:40.100Z,96985.22
2022-11-09T10:13:22.521Z,96978.94
2022-11-09T10:15:55.971Z,96970.16
2022-11-09T10:18:43.268Z,96982.78
2022-11-09T10:21:19.771Z,96977.47
2022-11-09T10:23:58.552Z,96979.06
2022-11-09T10:26:35.100Z,96965.94
2022-11-09T10:29:16.039Z,96971.59
2022-11-09T10:31:45.701Z,96970.25
2022-11-09T10:34:18.990Z,96958.16
2022-11-09T10:36:51.694Z,96959.91
2022-11-09T10:39:20.481Z,96950.66
2022-11-09T10:41:50.163Z,96954.88
2022-11-09T10:44:20.390Z,96953.06
2022-11-09T10:47:06.823Z,96936.28
2022-11-09T10:49:35.700Z,96937.94
2022-11-09T10:52:04.628Z,96934.94
2022-11-09T10:54:34.961Z,96938.13
2022-11-09T10:57:12.835Z,96932.59
2022-11-09T10:59:51.074Z,96932.56
2022-11-09T11:02:43.904Z,96930.28
2022-11-09T11:05:30.450Z,96930.50
2022-11-09T11:07:59.201Z,96932.66
2022-11-09T11:10:27.481Z,96930.59
2022-11-09T11:13:21.483Z,96934.88
2022-11-09T11:15:50.271Z,96930.84
2022-11-09T11:18:22.171Z,96915.13
2022-11-09T11:20:51.203Z,96899.75
2022-11-09T11:23:21.338Z,96904.38
2022-11-09T11:26:03.004Z,96893.44
2022-11-09T11:28:36.215Z,96888.31
2022-11-09T11:31:04.549Z,96885.97
2022-11-09T11:33:34.790Z,96886.78
2022-11-09T11:36:08.732Z,96893.66
2022-11-09T11:38:39.752Z,96891.56
2022-11-09T11:41:21.897Z,96889.78
2022-11-09T11:43:58.622Z,96893.34
2022-11-09T11:46:35.707Z,96896.56
2022-11-09T11:49:32.239Z,96887.31
2022-11-09T11:52:05.875Z,96887.75
2022-11-09T11:54:43.632Z,96890.69
2022-11-09T11:57:21.039Z,96902.69
2022-11-09T12:00:10.512Z,96899.75
2022-11-09T12:03:14.422Z,96904.03
2022-11-09T12:06:06.842Z,96907.28
2022-11-09T12:08:44.393Z,96895.75
2022-11-09T12:11:19.543Z,96879.50
2022-11-09T12:13:59.853Z,96878.09
2022-11-09T12:16:35.486Z,96887.06
2022-11-09T12:19:35.336Z,96879.09
2022-11-09T12:22:08.604Z,96875.56
2022-11-09T12:24:41.136Z,96863.94
2022-11-09T12:27:32.066Z,96866.06
2022-11-09T12:30:05.430Z,96871.44
2022-11-09T12:32:38.836Z,96881.63
2022-11-09T12:35:31.225Z,96888.00
2022-11-09T12:38:03.974Z,96883.66
2022-11-09T12:40:34.818Z,96880.97
2022-11-09T12:43:06.822Z,96882.97
2022-11-09T12:45:36.270Z,96876.38
2022-11-09T12:48:11.441Z,96868.31
2022-11-09T12:50:39.972Z,96863.38
2022-11-09T12:53:08.612Z,96846.13
2022-11-09T12:55:43.922Z,96848.84
2022-11-09T12:58:23.409Z,96852.06
2022-11-09T13:00:54.566Z,96843.53
2022-11-09T13:03:27.646Z,96840.97
2022-11-09T13:06:12.533Z,96835.78
2022-11-09T13:08:41.361Z,96831.31
2022-11-09T13:11:21.075Z,96847.66
2022-11-09T13:13:49.276Z,96851.00
2022-11-09T13:16:35.306Z,96846.91
2022-11-09T13:19:04.988Z,96846.75
2022-11-09T13:21:38.036Z,96851.66
2022-11-09T13:24:51.775Z,96847.06
2022-11-09T13:27:47.315Z,96851.84
2022-11-09T13:30:52.416Z,96854.94
2022-11-09T13:33:24.191Z,96859.22
2022-11-09T13:39:40.538Z,96857.47
2022-11-09T13:42:27.643Z,96855.56
2022-11-09T13:44:55.883Z,96854.66
2022-11-09T13:47:25.447Z,96856.53
2022-11-09T13:49:53.871Z,96869.66
2022-11-09T13:52:50.868Z,96862.22
2022-11-09T13:55:25.292Z,96861.03
2022-11-09T13:57:55.522Z,96865.50
2022-11-09T14:00:25.674Z,96883.44
2022-11-09T14:02:55.566Z,96889.16
2022-11-09T14:05:31.485Z,96885.72
2022-11-09T14:08:01.959Z,96891.25
2022-11-09T14:10:57.701Z,96886.84
2022-11-09T14:13:39.685Z,96884.78
2022-11-09T14:16:13.584Z,96888.19
2022-11-09T14:18:51.023Z,96902.38
2022-11-09T14:21:28.926Z,96902.03
2022-11-09T14:24:03.531Z,96895.34
2022-11-09T14:26:31.781Z,96893.34
2022-11-09T14:29:01.384Z,96891.69
2022-11-09T14:31:31.234Z,96881.50
2022-11-09T14:34:01.283Z,96877.28
2022-11-09T14:36:30.546Z,96882.59
2022-11-09T14:39:00.113Z,96891.03
2022-11-09T14:41:29.066Z,96894.81
2022-11-09T14:43:58.683Z,96880.88
2022-11-09T14:46:30.268Z,96894.75
2022-11-09T14:49:00.383Z,96899.72
2022-11-09T14:51:31.847Z,96886.44
2022-11-09T14:54:01.245Z,96897.59
2022-11-09T14:56:30.684Z,96904.75
2022-11-09T14:58:59.045Z,96901.47
2022-11-09T15:01:34.992Z,96899.72
2022-11-09T15:04:12.725Z,96907.94
2022-11-09T15:06:48.027Z,96917.50
2022-11-09T15:09:18.910Z,96911.91
2022-11-09T15:11:47.456Z,96920.81
2022-11-09T15:14:22.595Z,96916.69
2022-11-09T15:16:59.373Z,96929.53
2022-11-09T15:19:31.467Z,96933.47
2022-11-09T15:21:59.772Z,96935.78
2022-11-09T15:24:29.305Z,96932.69
2022-11-09T15:26:58.613Z,96937.59
2022-11-09T15:29:40.845Z,96935.47
2022-11-09T15:32:17.186Z,96944.50
2022-11-09T15:34:55.111Z,96939.25
2022-11-09T15:37:28.253Z,96949.91
2022-11-09T15:39:56.804Z,96954.19
2022-11-09T15:42:26.312Z,96962.56
2022-11-09T15:44:56.605Z,96959.59
2022-11-09T15:47:34.063Z,96956.63
2022-11-09T15:50:03.595Z,96952.00
2022-11-09T15:52:31.786Z,96947.75
2022-11-09T15:55:00.005Z,96943.59
2022-11-09T15:57:28.220Z,96943.78
2022-11-09T15:59:56.534Z,96947.38
2022-11-09T16:02:24.815Z,96938.81
2022-11-09T16:04:54.467Z,96942.44
2022-11-09T16:07:22.683Z,96948.69
2022-11-09T16:09:50.872Z,96950.78
2022-11-09T16:12:19.443Z,96962.63
2022-11-09T16:14:47.662Z,96962.97
2022-11-09T16:17:15.954Z,96968.06
2022-11-09T16:19:44.162Z,96971.50
2022-11-09T16:22:13.872Z,96979.06
2022-11-09T16:24:42.017Z,96971.03
2022-11-09T16:27:17.224Z,96979.56
2022-11-09T16:29:58.485Z,96984.66
2022-11-09T16:32:26.807Z,96981.53
2022-11-09T16:35:08.711Z,96973.16
2022-11-09T16:37:45.023Z,96977.97
2022-11-09T16:40:15.101Z,96987.50
2022-11-09T16:42:43.252Z,96985.22
2022-11-09T16:45:13.518Z,96991.47
2022-11-09T16:47:43.649Z,96988.84
2022-11-09T16:50:11.884Z,96998.38
2022-11-09T16:52:40.003Z,96987.19
2022-11-09T16:55:10.934Z,96996.88
2022-11-09T16:57:39.123Z,97005.47
2022-11-09T17:00:08.581Z,97008.91
2022-11-09T17:02:37.284Z,97011.38
2022-11-09T17:05:06.192Z,97014.16
2022-11-09T17:07:42.008Z,97015.00
2022-11-09T17:10:12.482Z,97022.38
2022-11-09T17:12:40.595Z,97027.44
2022-11-09T17:15:10.025Z,97033.41
2022-11-09T17:17:38.192Z,97024.81
2022-11-09T17:20:07.823Z,97031.13
2022-11-09T17:22:36.003Z,97040.66
2022-11-09T17:25:04.300Z,97037.03
2022-11-09T17:27:33.872Z,97024.38
2022-11-09T17:30:02.325Z,97031.28
2022-11-09T17:32:30.618Z,97032.94
2022-11-09T17:34:58.775Z,97022.41
2022-11-09T17:37:27.083Z,97037.06
2022-11-09T17:39:55.195Z,97043.00
2022-11-09T17:42:23.442Z,97032.47
2022-11-09T17:44:53.034Z,97045.16
2022-11-09T17:47:21.143Z,97040.22
2022-11-09T17:49:49.583Z,97033.00
2022-11-09T17:52:17.873Z,97043.19
2022-11-09T17:54:46.151Z,97047.16
2022-11-09T17:57:14.312Z,97059.31
2022-11-09T17:59:42.802Z,97055.72
2022-11-09T18:02:12.412Z,97053.72
2022-11-09T18:04:41.176Z,97050.75
2022-11-09T18:07:09.320Z,97065.59
2022-11-09T18:09:42.146Z,97061.16
2022-11-09T18:12:10.890Z,97057.38
2022-11-09T18:14:39.392Z,97054.72
2022-11-09T18:17:07.954Z,97058.88
2022-11-09T18:19:37.721Z,97052.13
2022-11-09T18:22:11.460Z,97069.22
2022-11-09T18:24:40.810Z,97068.22
2022-11-09T18:27:09.316Z,97069.72
2022-11-09T18:29:37.493Z,97067.25
2022-11-09T18:32:06.671Z,97055.75
2022-11-09T18:34:34.868Z,97066.44
2022-11-09T18:37:04.671Z,97069.06
2022-11-09T18:39:32.975Z,97069.22
2022-11-09T18:42:02.059Z,97073.00
2022-11-09T18:44:30.423Z,97074.47
2022-11-09T18:47:04.857Z,97072.84
2022-11-09T18:49:34.435Z,97076.44
2022-11-09T18:52:02.890Z,97090.13
2022-11-09T18:54:32.928Z,97082.22
2022-11-09T18:57:01.204Z,97080.38
2022-11-09T18:59:29.333Z,97084.00
2022-11-09T19:01:57.520Z,97091.25
2022-11-09T19:04:25.632Z,97092.56
2022-11-09T19:06:54.960Z,97081.06
2022-11-09T19:09:35.543Z,97093.75
2022-11-09T19:12:08.305Z,97092.25
2022-11-09T19:14:41.164Z,97083.88
2022-11-09T19:17:12.672Z,97093.75
2022-11-09T19:19:40.913Z,97093.41
2022-11-09T19:22:15.954Z,97101.66
2022-11-09T19:24:44.163Z,97100.00
2022-11-09T19:27:13.755Z,97104.44
2022-11-09T19:29:41.953Z,97101.44
2022-11-09T19:32:10.837Z,97095.69
2022-11-09T19:34:39.113Z,97114.78
2022-11-09T19:37:07.242Z,97111.81
2022-11-09T19:39:39.128Z,97112.31
2022-11-09T19:42:10.073Z,97122.84
2022-11-09T19:44:39.641Z,97121.34
2022-11-09T19:47:07.874Z,97117.56
2022-11-09T19:49:35.981Z,97128.28
2022-11-09T19:52:04.182Z,97129.47
2022-11-09T19:54:32.303Z,97118.25
2022-11-09T19:57:00.671Z,97129.63
2022-11-09T19:59:28.773Z,97136.38
2022-11-09T20:01:58.402Z,97142.94
2022-11-09T20:04:26.532Z,97140.66
2022-11-09T20:06:54.714Z,97151.38
2022-11-09T20:09:23.056Z,97153.34
2022-11-09T20:12:08.587Z,97152.53
2022-11-09T20:14:36.727Z,97153.50
2022-11-09T20:17:06.600Z,97155.44
2022-11-09T20:19:34.793Z,97162.50
2022-11-09T20:22:03.434Z,97164.94
2022-11-09T20:24:32.235Z,97173.34
2022-11-09T20:27:00.323Z,97174.00
2022-11-09T20:29:28.456Z,97180.06
2022-11-09T20:31:56.784Z,97184.72
2022-11-09T20:34:29.686Z,97185.69
2022-11-09T20:36:58.007Z,97179.09
2022-11-09T20:39:26.113Z,97185.03
2022-11-09T20:41:54.362Z,97195.22
2022-11-09T20:44:23.377Z,97192.06
2022-11-09T20:46:51.563Z,97196.50
2022-11-09T20:49:20.405Z,97198.00
2022-11-09T20:51:50.215Z,97191.59
2022-11-09T20:54:18.453Z,97191.59
2022-11-09T20:56:46.805Z,97194.22
2022-11-09T20:59:15.390Z,97194.56
2022-11-09T21:01:43.572Z,97207.94
2022-11-09T21:04:11.952Z,97213.19
2022-11-09T21:06:40.352Z,97215.19
2022-11-09T21:09:10.191Z,97218.66
2022-11-09T21:11:58.523Z,97220.78
2022-11-09T21:14:26.741Z,97224.41
2022-11-09T21:16:54.895Z,97221.25
2022-11-09T21:19:23.010Z,97234.63
2022-11-09T21:21:52.001Z,97215.50
2022-11-09T21:24:39.109Z,97217.50
2022-11-09T21:27:24.587Z,97223.41
2022-11-09T21:29:52.768Z,97231.66
2022-11-09T21:32:21.801Z,97224.75
2022-11-09T21:34:50.191Z,97219.13
2022-11-09T21:37:18.824Z,97232.97
2022-11-09T21:39:48.333Z,97228.81
2022-11-09T21:42:16.502Z,97232.63
2022-11-09T21:44:44.754Z,97232.59
2022-11-09T21:47:13.412Z,97233.59
2022-11-09T21:49:41.663Z,97231.63
2022-11-09T21:52:09.862Z,97233.59
2022-11-09T21:54:37.983Z,97231.44
2022-11-09T21:57:07.565Z,97238.69
2022-11-09T21:59:35.814Z,97243.47
2022-11-09T22:02:04.022Z,97236.38
2022-11-09T22:04:32.163Z,97234.91
2022-11-09T22:07:00.419Z,97231.28
2022-11-09T22:09:35.866Z,97233.06
2022-11-09T22:12:32.182Z,97228.31
2022-11-09T22:15:17.752Z,97233.03
2022-11-09T22:17:45.843Z,97235.66
2022-11-09T22:20:36.733Z,97233.38
2022-11-09T22:23:06.660Z,97232.72
2022-11-09T22:25:34.951Z,97232.25
2022-11-09T22:28:04.617Z,97238.00
2022-11-09T22:30:32.771Z,97237.53
2022-11-09T22:33:00.983Z,97237.53
2022-11-09T22:35:29.071Z,97241.63
2022-11-09T22:38:02.556Z,97228.97
2022-11-09T22:40:30.722Z,97231.94
2022-11-09T22:42:59.197Z,97233.91
2022-11-09T22:45:28.742Z,97235.88
2022-11-09T22:47:56.906Z,97233.56
2022-11-09T22:50:25.112Z,97239.94
2022-11-09T22:52:54.166Z,97244.22
2022-11-09T22:55:22.398Z,97252.31
2022-11-09T22:57:50.523Z,97254.09
2022-11-09T23:00:19.733Z,97255.75
2022-11-09T23:02:49.351Z,97261.88
2022-11-09T23:05:17.851Z,97267.47
2022-11-09T23:07:46.031Z,97270.78
2022-11-09T23:10:14.226Z,97264.53
2022-11-09T23:12:42.412Z,97277.19
2022-11-09T23:15:13.499Z,97279.22
2022-11-09T23:17:59.354Z,97281.34
2022-11-09T23:20:34.350Z,97283.81
2022-11-09T23:23:03.782Z,97285.84
2022-11-09T23:25:49.774Z,97287.63
2022-11-09T23:28:18.353Z,97281.38
2022-11-09T23:30:46.461Z,97285.34
2022-11-09T23:33:14.645Z,97295.72
2022-11-09T23:35:44.164Z,97298.56
2022-11-09T23:38:12.861Z,97297.59
2022-11-09T23:40:41.015Z,97313.84
2022-11-09T23:43:10.474Z,97326.34
2022-11-09T23:45:40.502Z,97332.59
2022-11-09T23:48:10.113Z,97331.97
2022-11-09T23:50:38.272Z,97329.03
2022-11-09T23:53:07.832Z,97317.81
2022-11-09T23:55:36.032Z,97320.44
2022-11-09T23:58:04.922Z,97319.31
